createdAt,value
2018-06-25T00:00:51.545Z,95701.00
2018-06-25T00:03:21.034Z,95703.00
2018-06-25T00:05:50.498Z,95703.00
2018-06-25T00:08:19.941Z,95700.00
2018-06-25T00:10:50.050Z,95705.00
2018-06-25T00:13:19.494Z,95697.00
2018-06-25T00:15:49.009Z,95700.00
2018-06-25T00:18:18.422Z,95702.00
2018-06-25T00:20:48.488Z,95698.00
2018-06-25T00:23:17.923Z,95714.00
2018-06-25T00:25:47.387Z,95702.00
2018-06-25T00:28:16.876Z,95704.00
2018-06-25T00:30:46.336Z,95709.00
2018-06-25T00:33:15.705Z,95714.00
2018-06-25T00:35:45.065Z,95711.00
2018-06-25T00:38:14.466Z,95717.00
2018-06-25T00:40:43.899Z,95718.00
2018-06-25T00:43:13.275Z,95718.00
2018-06-25T00:45:42.816Z,95717.00
2018-06-25T00:48:12.427Z,95709.00
2018-06-25T00:50:42.039Z,95709.00
2018-06-25T00:53:11.227Z,95709.00
2018-06-25T00:55:40.675Z,95717.00
2018-06-25T00:58:12.104Z,95716.00
2018-06-25T01:00:42.050Z,95716.00
2018-06-25T01:03:11.559Z,95714.00
2018-06-25T01:05:41.001Z,95718.00
2018-06-25T01:08:10.505Z,95717.00
2018-06-25T01:10:40.048Z,95719.00
2018-06-25T01:13:09.475Z,95719.00
2018-06-25T01:15:39.009Z,95718.00
2018-06-25T01:18:08.516Z,95715.00
2018-06-25T01:20:38.276Z,95717.00
2018-06-25T01:23:08.034Z,95709.00
2018-06-25T01:25:37.676Z,95709.00
2018-06-25T01:28:07.076Z,95714.00
2018-06-25T01:30:36.537Z,95710.00
2018-06-25T01:33:06.036Z,95706.00
2018-06-25T01:35:35.588Z,95721.00
2018-06-25T01:38:06.402Z,95716.00
2018-06-25T01:40:36.381Z,95728.00
2018-06-25T01:43:06.269Z,95715.00
2018-06-25T01:45:35.861Z,95711.00
2018-06-25T01:48:05.421Z,95706.00
2018-06-25T01:50:35.391Z,95719.00
2018-06-25T01:53:04.867Z,95718.00
2018-06-25T01:55:34.321Z,95710.00
2018-06-25T01:58:03.893Z,95717.00
2018-06-25T02:00:33.367Z,95719.00
2018-06-25T02:03:02.874Z,95721.00
2018-06-25T02:05:32.939Z,95715.00
2018-06-25T02:08:02.391Z,95706.00
2018-06-25T02:10:33.851Z,95709.00
2018-06-25T02:13:04.032Z,95715.00
2018-06-25T02:15:33.451Z,95710.00
2018-06-25T02:18:03.693Z,95715.00
2018-06-25T02:20:33.126Z,95710.00
2018-06-25T02:23:02.643Z,95715.00
2018-06-25T02:25:32.297Z,95723.00
2018-06-25T02:28:01.806Z,95723.00
2018-06-25T02:30:32.076Z,95719.00
2018-06-25T02:33:06.707Z,95718.00
2018-06-25T02:35:36.165Z,95723.00
2018-06-25T02:38:06.058Z,95715.00
2018-06-25T02:40:35.552Z,95726.00
2018-06-25T02:43:05.283Z,95732.00
2018-06-25T02:45:34.749Z,95724.00
2018-06-25T02:48:04.262Z,95717.00
2018-06-25T02:50:33.714Z,95725.00
2018-06-25T02:53:03.304Z,95728.00
2018-06-25T02:55:32.867Z,95718.00
2018-06-25T02:58:02.413Z,95720.00
2018-06-25T03:00:32.785Z,95732.00
2018-06-25T03:03:02.339Z,95723.00
2018-06-25T03:05:31.781Z,95727.00
2018-06-25T03:08:01.837Z,95728.00
2018-06-25T03:10:32.339Z,95728.00
2018-06-25T03:13:02.048Z,95735.00
2018-06-25T03:15:31.575Z,95725.00
2018-06-25T03:18:01.482Z,95733.00
2018-06-25T03:20:31.030Z,95736.00
2018-06-25T03:23:00.531Z,95730.00
2018-06-25T03:25:31.199Z,95731.00
2018-06-25T03:28:00.392Z,95736.00
2018-06-25T03:30:29.871Z,95740.00
2018-06-25T03:32:59.795Z,95743.00
2018-06-25T03:35:29.230Z,95743.00
2018-06-25T03:37:59.556Z,95736.00
2018-06-25T03:40:28.729Z,95746.00
2018-06-25T03:42:58.341Z,95754.00
2018-06-25T03:45:27.793Z,95751.00
2018-06-25T03:47:57.236Z,95751.00
2018-06-25T03:50:26.748Z,95747.00
2018-06-25T03:52:57.579Z,95747.00
2018-06-25T03:55:26.994Z,95750.00
2018-06-25T03:57:56.462Z,95758.00
2018-06-25T04:00:26.054Z,95753.00
2018-06-25T04:02:55.564Z,95759.00
2018-06-25T04:05:25.200Z,95761.00
2018-06-25T04:07:54.666Z,95765.00
2018-06-25T04:10:24.203Z,95766.00
2018-06-25T04:12:53.817Z,95767.00
2018-06-25T04:15:23.407Z,95771.00
2018-06-25T04:17:52.951Z,95775.00
2018-06-25T04:20:22.463Z,95775.00
2018-06-25T04:22:52.885Z,95773.00
2018-06-25T04:25:22.447Z,95782.00
2018-06-25T04:27:52.213Z,95775.00
2018-06-25T04:30:22.593Z,95790.00
2018-06-25T04:32:52.155Z,95792.00
2018-06-25T04:35:21.661Z,95793.00
2018-06-25T04:37:51.119Z,95788.00
2018-06-25T04:40:20.634Z,95794.00
2018-06-25T04:42:50.103Z,95794.00
2018-06-25T04:45:19.498Z,95789.00
2018-06-25T04:47:53.039Z,95796.00
2018-06-25T04:50:22.511Z,95797.00
2018-06-25T04:52:52.745Z,95805.00
2018-06-25T04:55:22.841Z,95803.00
2018-06-25T04:57:52.287Z,95807.00
2018-06-25T05:00:21.798Z,95813.00
2018-06-25T05:02:51.282Z,95809.00
2018-06-25T05:05:21.344Z,95823.00
2018-06-25T05:08:01.395Z,95827.00
2018-06-25T05:10:30.850Z,95827.00
2018-06-25T05:13:00.904Z,95824.00
2018-06-25T05:15:30.474Z,95813.00
2018-06-25T05:18:00.598Z,95814.00
2018-06-25T05:20:36.172Z,95818.00
2018-06-25T05:23:05.730Z,95818.00
2018-06-25T05:25:35.884Z,95810.00
2018-06-25T05:28:05.602Z,95812.00
2018-06-25T05:43:38.441Z,95824.00
2018-06-25T05:46:09.143Z,95825.00
2018-06-25T05:48:38.786Z,95820.00
2018-06-25T05:51:08.217Z,95839.00
2018-06-25T05:53:37.989Z,95837.00
2018-06-25T06:40:41.931Z,95857.00
2018-06-25T06:43:11.408Z,95860.00
2018-06-25T06:45:49.128Z,95865.00
2018-06-25T06:48:18.613Z,95861.00
2018-06-25T06:50:48.226Z,95864.00
2018-06-25T06:53:17.766Z,95869.00
2018-06-25T06:55:47.359Z,95868.00
2018-06-25T06:58:17.937Z,95868.00
2018-06-25T07:00:48.628Z,95867.00
2018-06-25T07:03:18.554Z,95873.00
2018-06-25T07:05:48.368Z,95870.00
2018-06-25T07:08:22.113Z,95868.00
2018-06-25T07:10:51.928Z,95874.00
2018-06-25T07:13:21.333Z,95878.00
2018-06-25T07:15:51.301Z,95878.00
2018-06-25T07:18:26.413Z,95878.00
2018-06-25T07:20:56.808Z,95868.00
2018-06-25T07:23:26.666Z,95875.00
2018-06-25T07:25:56.509Z,95868.00
2018-06-25T07:28:26.475Z,95864.00
2018-06-25T07:30:55.970Z,95859.00
2018-06-25T07:33:48.150Z,95860.00
2018-06-25T07:36:21.026Z,95861.00
2018-06-25T07:38:51.529Z,95868.00
2018-06-25T07:41:21.464Z,95860.00
2018-06-25T07:43:50.700Z,95859.00
2018-06-25T07:46:20.250Z,95857.00
2018-06-25T07:48:49.692Z,95864.00
2018-06-25T07:51:19.154Z,95863.00
2018-06-25T07:53:48.587Z,95872.00
2018-06-25T07:56:21.005Z,95865.00
2018-06-25T07:58:51.778Z,95874.00
2018-06-25T08:01:21.129Z,95871.00
2018-06-25T08:03:50.777Z,95881.00
2018-06-25T08:06:27.053Z,95869.00
2018-06-25T08:08:58.772Z,95865.00
2018-06-25T08:11:29.635Z,95873.00
2018-06-25T08:13:59.121Z,95872.00
2018-06-25T08:16:28.474Z,95874.00
2018-06-25T08:18:58.177Z,95877.00
2018-06-25T08:21:27.505Z,95880.00
2018-06-25T08:23:57.853Z,95876.00
2018-06-25T08:26:29.589Z,95886.00
2018-06-25T08:28:59.093Z,95898.00
2018-06-25T08:31:28.502Z,95898.00
2018-06-25T08:33:58.536Z,95893.00
2018-06-25T08:36:27.919Z,95895.00
2018-06-25T08:38:57.455Z,95895.00
2018-06-25T08:41:26.974Z,95897.00
2018-06-25T08:43:56.417Z,95894.00
2018-06-25T08:46:25.838Z,95897.00
2018-06-25T08:48:55.963Z,95904.00
2018-06-25T08:51:31.148Z,95905.00
2018-06-25T08:54:01.144Z,95909.00
2018-06-25T08:56:31.805Z,95910.00
2018-06-25T09:50:38.157Z,95945.00
2018-06-25T09:53:16.979Z,95946.00
2018-06-25T09:55:46.507Z,95951.00
2018-06-25T10:08:35.844Z,95948.00
2018-06-25T10:11:11.219Z,95963.00
2018-06-25T10:14:00.291Z,95967.00
2018-06-25T10:16:38.711Z,95972.00
2018-06-25T11:01:14.899Z,95966.00
2018-06-25T11:03:44.825Z,95964.00
2018-06-25T11:25:16.065Z,95961.00
2018-06-25T11:27:45.628Z,95966.00
2018-06-25T11:30:17.578Z,95964.00
2018-06-25T11:32:48.143Z,95963.00
2018-06-25T11:35:17.501Z,95960.00
2018-06-25T11:37:49.560Z,95971.00
2018-06-25T11:40:19.835Z,95966.00
2018-06-25T11:42:49.672Z,95953.00
2018-06-25T11:45:19.126Z,95952.00
2018-06-25T11:47:48.590Z,95956.00
2018-06-25T11:50:18.094Z,95957.00
2018-06-25T11:52:47.630Z,95958.00
2018-06-25T11:55:22.352Z,95962.00
2018-06-25T11:57:52.896Z,95964.00
2018-06-25T12:00:22.402Z,95963.00
2018-06-25T12:02:52.615Z,95957.00
2018-06-25T12:05:22.110Z,95951.00
2018-06-25T12:07:56.718Z,95953.00
2018-06-25T12:10:26.154Z,95955.00
2018-06-25T12:12:57.370Z,95941.00
2018-06-25T12:15:27.443Z,95951.00
2018-06-25T12:17:57.300Z,95946.00
2018-06-25T12:20:26.862Z,95950.00
2018-06-25T12:22:56.368Z,95952.00
2018-06-25T12:25:26.353Z,95954.00
2018-06-25T12:27:55.884Z,95948.00
2018-06-25T12:30:25.265Z,95957.00
2018-06-25T12:32:54.457Z,95957.00
2018-06-25T12:35:24.995Z,95958.00
2018-06-25T12:37:54.474Z,95953.00
2018-06-25T12:40:25.736Z,95959.00
2018-06-25T12:42:57.837Z,95963.00
2018-06-25T12:45:27.659Z,95964.00
2018-06-25T12:47:59.988Z,95955.00
2018-06-25T12:50:30.014Z,95961.00
2018-06-25T12:52:59.441Z,95970.00
2018-06-25T12:55:29.227Z,95961.00
2018-06-25T12:57:58.627Z,95970.00
2018-06-25T13:00:29.655Z,95972.00
2018-06-25T13:02:59.588Z,95973.00
2018-06-25T13:05:29.882Z,95981.00
2018-06-25T13:07:59.703Z,95974.00
2018-06-25T13:10:29.233Z,95974.00
2018-06-25T13:12:59.029Z,95981.00
2018-06-25T13:15:29.036Z,95975.00
2018-06-25T13:17:58.673Z,95983.00
2018-06-25T13:20:28.582Z,95979.00
2018-06-25T13:22:58.764Z,95977.00
2018-06-25T13:25:29.021Z,95986.00
2018-06-25T13:38:05.992Z,95984.00
2018-06-25T13:40:35.408Z,95986.00
2018-06-25T13:43:04.966Z,95981.00
2018-06-25T13:45:35.818Z,95980.00
2018-06-25T13:48:04.944Z,95982.00
2018-06-25T13:50:34.306Z,95976.00
2018-06-25T13:53:03.812Z,95974.00
2018-06-25T13:55:34.013Z,95975.00
2018-06-25T13:58:03.568Z,95971.00
2018-06-25T14:00:33.105Z,95965.00
2018-06-25T14:03:02.548Z,95961.00
2018-06-25T14:05:32.019Z,95965.00
2018-06-25T14:08:02.191Z,95966.00
2018-06-25T14:10:31.695Z,95964.00
2018-06-25T14:13:02.026Z,95963.00
2018-06-25T14:15:32.299Z,95959.00
2018-06-25T14:18:01.705Z,95966.00
2018-06-25T14:20:31.178Z,95957.00
2018-06-25T14:23:08.396Z,95956.00
2018-06-25T14:25:51.068Z,95958.00
2018-06-25T14:28:32.774Z,95959.00
2018-06-25T14:31:07.808Z,95956.00
2018-06-25T14:33:43.152Z,95970.00
2018-06-25T14:36:14.666Z,95961.00
2018-06-25T14:38:44.152Z,95963.00
2018-06-25T14:41:14.433Z,95959.00
2018-06-25T14:43:43.915Z,95962.00
2018-06-25T14:46:13.375Z,95959.00
2018-06-25T14:48:43.377Z,95960.00
2018-06-25T14:51:13.496Z,95955.00
2018-06-25T14:53:43.013Z,95954.00
2018-06-25T14:56:13.768Z,95961.00
2018-06-25T14:58:44.758Z,95963.00
2018-06-25T15:01:14.312Z,95964.00
2018-06-25T15:03:43.744Z,95961.00
2018-06-25T15:06:13.189Z,95964.00
2018-06-25T15:08:44.438Z,95954.00
2018-06-25T15:11:14.401Z,95957.00
2018-06-25T15:13:44.685Z,95973.00
2018-06-25T15:16:15.217Z,95972.00
2018-06-25T15:18:46.945Z,95971.00
2018-06-25T15:21:17.815Z,95961.00
2018-06-25T15:23:48.929Z,95957.00
2018-06-25T15:26:19.057Z,95963.00
2018-06-25T15:28:49.791Z,95953.00
2018-06-25T15:31:19.835Z,95958.00
2018-06-25T15:33:49.751Z,95958.00
2018-06-25T15:36:20.720Z,95952.00
2018-06-25T15:38:51.323Z,95954.00
2018-06-25T15:41:23.621Z,95951.00
2018-06-25T15:43:53.676Z,95949.00
2018-06-25T15:46:23.382Z,95948.00
2018-06-25T15:48:53.738Z,95945.00
2018-06-25T15:51:25.198Z,95944.00
2018-06-25T15:53:58.104Z,95951.00
2018-06-25T15:56:28.874Z,95945.00
2018-06-25T15:58:58.532Z,95944.00
2018-06-25T16:01:28.376Z,95947.00
2018-06-25T16:03:58.320Z,95941.00
2018-06-25T16:07:28.018Z,95941.00
2018-06-25T16:09:59.190Z,95937.00
2018-06-25T16:12:29.152Z,95939.00
2018-06-25T16:14:59.358Z,95937.00
2018-06-25T16:17:29.505Z,95933.00
2018-06-25T16:19:59.420Z,95940.00
2018-06-25T16:22:29.297Z,95945.00
2018-06-25T16:24:59.112Z,95941.00
2018-06-25T16:27:29.506Z,95948.00
2018-06-25T16:29:59.606Z,95944.00
2018-06-25T16:32:30.745Z,95943.00
2018-06-25T16:35:00.235Z,95942.00
2018-06-25T16:37:30.332Z,95943.00
2018-06-25T16:40:00.879Z,95937.00
2018-06-25T16:42:31.876Z,95936.00
2018-06-25T16:45:02.827Z,95942.00
2018-06-25T16:47:32.255Z,95931.00
2018-06-25T16:50:03.168Z,95934.00
2018-06-25T16:52:32.741Z,95932.00
2018-06-25T16:55:02.939Z,95930.00
2018-06-25T16:57:32.436Z,95935.00
2018-06-25T17:00:02.557Z,95934.00
2018-06-25T17:02:32.046Z,95930.00
2018-06-25T17:05:01.264Z,95928.00
2018-06-25T17:07:31.944Z,95922.00
2018-06-25T17:10:01.854Z,95931.00
2018-06-25T17:12:31.890Z,95922.00
2018-06-25T17:15:01.794Z,95928.00
2018-06-25T17:17:31.354Z,95926.00
2018-06-25T17:20:01.368Z,95931.00
2018-06-25T17:22:30.802Z,95937.00
2018-06-25T17:25:00.214Z,95933.00
2018-06-25T17:27:30.234Z,95931.00
2018-06-25T17:29:59.704Z,95931.00
2018-06-25T17:32:29.236Z,95935.00
2018-06-25T17:34:58.729Z,95933.00
2018-06-25T17:37:28.736Z,95930.00
2018-06-25T17:39:58.614Z,95931.00
2018-06-25T17:42:29.271Z,95932.00
2018-06-25T17:44:58.944Z,95936.00
2018-06-25T17:47:29.067Z,95941.00
2018-06-25T17:49:58.439Z,95939.00
2018-06-25T17:52:28.259Z,95936.00
2018-06-25T17:54:58.496Z,95935.00
2018-06-25T17:57:28.673Z,95940.00
2018-06-25T17:59:58.232Z,95945.00
2018-06-25T18:02:28.433Z,95934.00
2018-06-25T18:04:58.029Z,95940.00
2018-06-25T18:07:27.516Z,95941.00
2018-06-25T18:09:58.077Z,95944.00
2018-06-25T18:12:27.652Z,95949.00
2018-06-25T18:14:59.092Z,95940.00
2018-06-25T18:17:28.868Z,95942.00
2018-06-25T18:19:59.645Z,95942.00
2018-06-25T18:22:29.279Z,95937.00
2018-06-25T18:24:58.850Z,95943.00
2018-06-25T18:27:29.236Z,95945.00
2018-06-25T18:29:59.225Z,95947.00
2018-06-25T18:32:29.257Z,95945.00
2018-06-25T18:34:58.849Z,95947.00
2018-06-25T18:37:28.576Z,95954.00
2018-06-25T18:40:02.170Z,95949.00
2018-06-25T18:42:32.396Z,95944.00
2018-06-25T18:45:01.934Z,95940.00
2018-06-25T18:47:31.567Z,95949.00
2018-06-25T18:50:01.107Z,95951.00
2018-06-25T18:52:31.330Z,95948.00
2018-06-25T18:55:01.294Z,95958.00
2018-06-25T18:57:30.859Z,95955.00
2018-06-25T19:00:00.414Z,95960.00
2018-06-25T19:02:30.027Z,95965.00
2018-06-25T19:05:00.123Z,95961.00
2018-06-25T19:07:29.665Z,95967.00
2018-06-25T19:09:59.428Z,95977.00
2018-06-25T19:12:29.288Z,95971.00
2018-06-25T19:14:58.830Z,95974.00
2018-06-25T19:17:28.392Z,95974.00
2018-06-25T19:19:58.610Z,95973.00
2018-06-25T19:22:29.531Z,95970.00
2018-06-25T19:24:59.046Z,95981.00
2018-06-25T19:27:28.465Z,95983.00
2018-06-25T19:29:57.880Z,95989.00
2018-06-25T19:32:27.463Z,95980.00
2018-06-25T19:34:56.992Z,95985.00
2018-06-25T19:37:26.445Z,95984.00
2018-06-25T19:39:55.996Z,95986.00
2018-06-25T19:42:25.414Z,95988.00
2018-06-25T19:44:55.392Z,95993.00
2018-06-25T19:47:24.976Z,96000.00
2018-06-25T19:49:54.253Z,95999.00
2018-06-25T19:52:27.701Z,95997.00
2018-06-25T19:54:57.209Z,96008.00
2018-06-25T19:57:26.670Z,96006.00
2018-06-25T19:59:56.044Z,96013.00
2018-06-25T20:02:25.514Z,96016.00
2018-06-25T20:04:55.037Z,96012.00
2018-06-25T20:07:24.605Z,96014.00
2018-06-25T20:09:54.158Z,96009.00
2018-06-25T20:12:24.370Z,96013.00
2018-06-25T20:14:53.941Z,96021.00
2018-06-25T20:17:23.538Z,96022.00
2018-06-25T20:19:53.334Z,96014.00
2018-06-25T20:22:23.854Z,96019.00
2018-06-25T20:24:54.578Z,96017.00
2018-06-25T20:27:24.033Z,96009.00
2018-06-25T20:29:58.372Z,96018.00
2018-06-25T20:32:27.813Z,96019.00
2018-06-25T20:34:59.532Z,96020.00
2018-06-25T20:37:33.119Z,96016.00
2018-06-25T20:40:02.707Z,96018.00
2018-06-25T20:42:32.214Z,96027.00
2018-06-25T20:45:02.437Z,96014.00
2018-06-25T20:47:33.544Z,96029.00
2018-06-25T20:50:03.177Z,96019.00
2018-06-25T20:52:32.705Z,96020.00
2018-06-25T20:55:02.755Z,96022.00
2018-06-25T20:57:32.260Z,96016.00
2018-06-25T21:00:02.535Z,96019.00
2018-06-25T21:02:31.725Z,96016.00
2018-06-25T21:05:01.161Z,96018.00
2018-06-25T21:07:30.582Z,96017.00
2018-06-25T21:10:05.041Z,96025.00
2018-06-25T21:12:34.635Z,96018.00
2018-06-25T21:15:04.181Z,96027.00
2018-06-25T21:17:33.652Z,96025.00
2018-06-25T21:20:04.106Z,96026.00
2018-06-25T21:22:33.432Z,96032.00
2018-06-25T21:25:02.882Z,96018.00
2018-06-25T21:27:32.488Z,96032.00
2018-06-25T21:30:02.019Z,96032.00
2018-06-25T21:32:33.941Z,96027.00
2018-06-25T21:35:03.613Z,96029.00
2018-06-25T21:37:33.205Z,96027.00
2018-06-25T21:40:02.709Z,96020.00
2018-06-25T21:42:32.216Z,96025.00
2018-06-25T21:45:01.647Z,96022.00
2018-06-25T21:47:31.181Z,96022.00
2018-06-25T21:50:00.248Z,96024.00
2018-06-25T21:52:29.612Z,96028.00
2018-06-25T21:55:03.748Z,96026.00
2018-06-25T21:57:33.153Z,96020.00
2018-06-25T22:00:02.559Z,96031.00
2018-06-25T22:02:32.539Z,96033.00
2018-06-25T22:05:02.802Z,96030.00
2018-06-25T22:07:32.180Z,96028.00
2018-06-25T22:10:01.637Z,96032.00
2018-06-25T22:12:32.157Z,96025.00
2018-06-25T22:15:01.573Z,96026.00
2018-06-25T22:17:31.687Z,96025.00
2018-06-25T22:20:01.135Z,96031.00
2018-06-25T22:22:30.649Z,96030.00
2018-06-25T22:25:00.637Z,96025.00
2018-06-25T22:27:30.679Z,96025.00
2018-06-25T22:30:00.752Z,96032.00
2018-06-25T22:32:30.201Z,96031.00
2018-06-25T22:34:59.329Z,96034.00
2018-06-25T22:37:28.821Z,96027.00
2018-06-25T22:40:02.616Z,96032.00
2018-06-25T22:42:34.345Z,96033.00
2018-06-25T22:45:03.845Z,96037.00
2018-06-25T22:47:33.285Z,96045.00
2018-06-25T22:50:03.442Z,96038.00
2018-06-25T22:52:32.908Z,96039.00
2018-06-25T22:55:03.578Z,96038.00
2018-06-25T22:57:33.816Z,96035.00
2018-06-25T23:00:03.419Z,96031.00
2018-06-25T23:02:34.140Z,96038.00
2018-06-25T23:05:04.330Z,96037.00
2018-06-25T23:07:33.718Z,96026.00
2018-06-25T23:10:02.865Z,96031.00
2018-06-25T23:12:32.303Z,96025.00
2018-06-25T23:15:01.861Z,96030.00
2018-06-25T23:17:31.365Z,96025.00
2018-06-25T23:20:00.814Z,96019.00
2018-06-25T23:22:30.202Z,96019.00
2018-06-25T23:24:59.605Z,96015.00
2018-06-25T23:27:28.953Z,96019.00
2018-06-25T23:29:58.381Z,96016.00
2018-06-25T23:32:27.791Z,96016.00
2018-06-25T23:34:57.187Z,96013.00
2018-06-25T23:37:26.611Z,96012.00
2018-06-25T23:39:56.195Z,96020.00
2018-06-25T23:42:25.664Z,96012.00
2018-06-25T23:44:55.145Z,96019.00
2018-06-25T23:47:24.738Z,96018.00
2018-06-25T23:49:54.273Z,96015.00
2018-06-25T23:52:23.412Z,96022.00
2018-06-25T23:54:52.878Z,96021.00
2018-06-25T23:57:22.136Z,96020.00
2018-06-25T23:59:51.598Z,96018.00
